createdAt,value
2022-10-24T00:00:21.283Z,96.89
2022-10-24T00:05:22.775Z,96.92
2022-10-24T00:10:24.341Z,97.04
2022-10-24T00:15:25.931Z,97.43
2022-10-24T00:20:27.350Z,97.13
2022-10-24T00:25:28.798Z,97.00
2022-10-24T00:30:30.373Z,96.92
2022-10-24T00:35:32.093Z,96.84
2022-10-24T00:40:33.713Z,97.18
2022-10-24T00:45:44.226Z,97.69
2022-10-24T00:50:46.821Z,97.95
2022-10-24T00:55:52.293Z,98.13
2022-10-24T01:00:53.830Z,97.44
2022-10-24T01:06:23.518Z,97.33
2022-10-24T01:11:43.545Z,97.59
2022-10-24T01:16:54.501Z,97.31
2022-10-24T01:22:02.670Z,98.27
2022-10-24T01:27:20.117Z,98.39
2022-10-24T01:32:27.999Z,98.58
2022-10-24T01:37:51.383Z,98.61
2022-10-24T01:42:56.859Z,98.93
2022-10-24T01:48:02.614Z,99.43
2022-10-24T01:53:05.165Z,99.51
2022-10-24T01:58:08.288Z,99.51
2022-10-24T02:03:29.596Z,99.35
2022-10-24T02:08:39.040Z,99.34
2022-10-24T02:13:53.347Z,100.00
2022-10-24T02:18:56.638Z,100.00
2022-10-24T02:24:09.997Z,100.00
2022-10-24T02:29:16.255Z,99.76
2022-10-24T02:34:19.278Z,99.09
2022-10-24T02:39:22.351Z,98.94
2022-10-24T02:44:25.929Z,99.26
2022-10-24T02:49:27.901Z,99.33
2022-10-24T02:54:29.517Z,99.21
2022-10-24T02:59:31.655Z,98.76
2022-10-24T03:04:33.313Z,99.04
2022-10-24T03:09:35.183Z,98.55
2022-10-24T03:14:36.783Z,98.38
2022-10-24T03:19:38.642Z,98.43
2022-10-24T03:24:44.701Z,98.35
2022-10-24T03:29:56.594Z,98.03
2022-10-24T03:34:58.134Z,97.95
2022-10-24T03:39:59.683Z,98.04
2022-10-24T03:45:01.259Z,98.17
2022-10-24T03:50:03.790Z,97.86
2022-10-24T03:55:05.723Z,97.76
2022-10-24T04:00:07.955Z,97.54
2022-10-24T04:05:10.174Z,97.21
2022-10-24T04:10:12.217Z,96.94
2022-10-24T04:15:13.790Z,96.74
2022-10-24T04:20:19.628Z,96.68
2022-10-24T04:25:21.335Z,96.36
2022-10-24T04:30:22.902Z,96.21
2022-10-24T04:35:26.043Z,96.14
2022-10-24T04:40:27.673Z,95.90
2022-10-24T04:45:29.341Z,95.45
2022-10-24T04:50:30.892Z,94.84
2022-10-24T04:55:32.581Z,94.65
2022-10-24T05:00:34.279Z,94.26
2022-10-24T05:05:35.818Z,93.82
2022-10-24T05:10:37.477Z,93.62
2022-10-24T05:15:39.120Z,93.51
2022-10-24T05:25:47.257Z,93.14
2022-10-24T05:30:48.900Z,93.04
2022-10-24T05:35:51.831Z,93.11
2022-10-24T05:40:53.871Z,93.23
2022-10-24T05:45:55.457Z,93.34
2022-10-24T05:50:57.992Z,93.72
2022-10-24T05:55:59.552Z,94.43
2022-10-24T06:01:01.315Z,94.59
2022-10-24T06:06:05.246Z,94.84
2022-10-24T06:11:11.126Z,94.33
2022-10-24T06:16:13.052Z,94.01
2022-10-24T06:21:15.955Z,93.74
2022-10-24T06:26:20.421Z,92.98
2022-10-24T06:31:26.547Z,92.70
2022-10-24T06:36:30.712Z,92.75
2022-10-24T06:41:33.189Z,92.89
2022-10-24T06:46:36.360Z,93.20
2022-10-24T06:51:37.909Z,93.46
2022-10-24T06:56:39.646Z,93.56
2022-10-24T07:01:42.108Z,93.21
2022-10-24T07:06:44.206Z,93.06
2022-10-24T07:11:46.110Z,93.02
2022-10-24T07:16:47.809Z,92.91
2022-10-24T07:21:49.453Z,92.09
2022-10-24T07:26:51.064Z,92.00
2022-10-24T07:31:52.665Z,91.71
2022-10-24T07:36:54.262Z,91.53
2022-10-24T07:41:55.841Z,90.74
2022-10-24T07:46:57.508Z,91.18
2022-10-24T07:51:59.345Z,90.46
2022-10-24T07:57:00.913Z,89.12
2022-10-24T08:02:02.443Z,88.37
2022-10-24T08:07:03.986Z,87.96
2022-10-24T08:12:05.923Z,86.22
2022-10-24T08:17:08.453Z,86.22
2022-10-24T08:22:10.314Z,86.61
2022-10-24T08:27:12.749Z,86.70
2022-10-24T08:32:14.296Z,85.36
2022-10-24T08:37:15.873Z,86.32
2022-10-24T08:42:18.408Z,85.88
2022-10-24T08:47:44.880Z,86.00
2022-10-24T08:53:06.565Z,84.66
2022-10-24T08:58:15.124Z,82.09
2022-10-24T09:03:43.560Z,83.47
2022-10-24T09:09:05.994Z,82.75
2022-10-24T09:14:14.081Z,80.91
2022-10-24T09:19:20.803Z,81.43
2022-10-24T09:24:39.640Z,79.86
2022-10-24T09:29:41.327Z,76.03
2022-10-24T09:34:43.050Z,75.77
2022-10-24T09:39:44.595Z,74.94
2022-10-24T09:44:47.048Z,73.92
2022-10-24T09:49:49.008Z,73.02
2022-10-24T09:55:15.559Z,72.69
2022-10-24T10:00:42.662Z,72.25
2022-10-24T10:05:50.650Z,69.40
2022-10-24T10:11:26.511Z,70.95
2022-10-24T10:16:31.285Z,68.66
2022-10-24T10:21:56.014Z,70.28
2022-10-24T10:26:57.570Z,68.00
2022-10-24T10:32:17.564Z,69.30
2022-10-24T10:37:33.562Z,68.46
2022-10-24T10:42:49.329Z,69.04
2022-10-24T10:48:33.946Z,69.68
2022-10-24T10:53:38.398Z,69.45
2022-10-24T10:58:58.543Z,70.79
2022-10-24T11:04:14.101Z,69.42
2022-10-24T11:09:30.682Z,68.59
2022-10-24T11:14:38.049Z,69.92
2022-10-24T11:19:46.595Z,67.86
2022-10-24T11:24:57.901Z,68.47
2022-10-24T11:30:30.964Z,68.27
2022-10-24T11:35:34.519Z,68.72
2022-10-24T11:40:37.200Z,66.58
2022-10-24T11:45:51.852Z,67.50
2022-10-24T11:51:04.296Z,67.79
2022-10-24T11:56:15.395Z,67.09
2022-10-24T12:01:25.633Z,67.74
2022-10-24T12:07:17.862Z,67.70
2022-10-24T12:12:44.238Z,66.75
2022-10-24T12:17:59.220Z,66.50
2022-10-24T12:23:02.600Z,66.64
2022-10-24T12:28:23.012Z,66.18
2022-10-24T12:33:27.382Z,66.89
2022-10-24T12:38:28.891Z,66.56
2022-10-24T12:43:48.319Z,66.83
2022-10-24T12:48:58.949Z,67.18
2022-10-24T12:54:04.807Z,68.21
2022-10-24T12:59:28.057Z,68.63
2022-10-24T13:04:57.475Z,65.54
2022-10-24T13:09:58.960Z,67.31
2022-10-24T13:15:13.808Z,66.58
2022-10-24T13:20:18.334Z,68.09
2022-10-24T13:25:33.915Z,68.37
2022-10-24T13:30:35.555Z,68.72
2022-10-24T13:35:37.579Z,69.39
2022-10-24T13:40:42.825Z,69.73
2022-10-24T13:45:53.433Z,69.44
2022-10-24T13:51:42.545Z,70.64
2022-10-24T13:56:46.394Z,70.25
2022-10-24T14:01:48.023Z,70.68
2022-10-24T14:06:49.667Z,70.99
2022-10-24T14:11:51.338Z,71.41
2022-10-24T14:17:26.961Z,71.39
2022-10-24T14:22:40.305Z,72.35
2022-10-24T14:27:41.924Z,72.92
2022-10-24T14:32:43.499Z,72.81
2022-10-24T14:37:45.583Z,73.08
2022-10-24T14:42:48.957Z,73.52
2022-10-24T14:47:53.666Z,73.59
2022-10-24T14:52:55.419Z,74.35
2022-10-24T14:57:57.144Z,76.05
2022-10-24T15:02:59.268Z,76.65
2022-10-24T15:08:21.419Z,76.42
2022-10-24T15:13:25.418Z,76.44
2022-10-24T15:18:31.597Z,77.38
2022-10-24T15:23:35.981Z,78.10
2022-10-24T15:28:43.207Z,77.84
2022-10-24T15:33:45.571Z,78.33
2022-10-24T15:38:48.623Z,79.13
2022-10-24T15:43:50.440Z,79.15
2022-10-24T15:48:52.050Z,78.95
2022-10-24T15:53:54.295Z,79.40
2022-10-24T15:58:56.750Z,79.73
2022-10-24T16:03:59.124Z,81.26
2022-10-24T16:09:00.750Z,80.98
2022-10-24T16:14:02.319Z,83.27
2022-10-24T16:19:03.862Z,82.77
2022-10-24T16:24:05.941Z,87.98
2022-10-24T16:29:07.720Z,89.10
2022-10-24T16:34:09.415Z,86.29
2022-10-24T16:39:10.974Z,88.21
2022-10-24T16:44:13.561Z,87.44
2022-10-24T16:49:15.178Z,87.89
2022-10-24T16:54:16.750Z,88.23
2022-10-24T16:59:19.129Z,88.35
2022-10-24T17:04:20.784Z,88.24
2022-10-24T17:09:22.358Z,88.43
2022-10-24T17:14:23.962Z,88.39
2022-10-24T17:19:25.846Z,88.01
2022-10-24T17:24:27.847Z,87.49
2022-10-24T17:29:32.894Z,86.84
2022-10-24T17:34:34.961Z,86.90
2022-10-24T17:39:59.407Z,87.75
2022-10-24T17:45:01.153Z,88.32
2022-10-24T17:50:02.686Z,89.47
2022-10-24T17:55:04.585Z,90.26
2022-10-24T18:00:08.468Z,90.63
2022-10-24T18:05:09.994Z,91.47
2022-10-24T18:10:12.601Z,94.93
2022-10-24T18:15:17.104Z,93.03
2022-10-24T18:20:19.183Z,94.85
2022-10-24T18:25:22.993Z,94.56
2022-10-24T18:30:25.169Z,93.15
2022-10-24T18:35:28.790Z,92.20
2022-10-24T18:40:33.458Z,92.18
2022-10-24T18:45:35.487Z,92.33
2022-10-24T18:50:37.661Z,91.64
2022-10-24T18:55:39.565Z,91.04
2022-10-24T19:00:42.880Z,90.81
2022-10-24T19:06:15.454Z,91.93
2022-10-24T19:11:17.168Z,90.55
2022-10-24T19:16:28.608Z,90.76
2022-10-24T19:21:33.205Z,90.25
2022-10-24T19:26:34.798Z,89.99
2022-10-24T19:31:36.956Z,89.75
2022-10-24T19:36:39.215Z,89.80
2022-10-24T19:41:40.818Z,89.99
2022-10-24T19:46:42.417Z,90.29
2022-10-24T19:51:43.945Z,91.47
2022-10-24T19:56:46.160Z,91.35
2022-10-24T20:01:47.870Z,90.93
2022-10-24T20:06:49.781Z,90.59
2022-10-24T20:11:51.319Z,90.23
2022-10-24T20:16:52.888Z,90.18
2022-10-24T20:21:55.939Z,90.85
2022-10-24T20:27:00.685Z,90.73
2022-10-24T20:32:02.530Z,90.98
2022-10-24T20:37:06.140Z,91.02
2022-10-24T20:42:07.724Z,91.13
2022-10-24T20:47:09.260Z,91.17
2022-10-24T20:57:17.295Z,92.13
2022-10-24T21:02:18.924Z,91.93
2022-10-24T21:07:20.582Z,92.24
2022-10-24T21:12:22.148Z,92.26
2022-10-24T21:22:30.385Z,92.53
2022-10-24T21:27:31.935Z,92.67
2022-10-24T21:32:33.511Z,93.00
2022-10-24T21:37:35.063Z,93.49
2022-10-24T21:42:36.635Z,93.73
2022-10-24T21:47:38.185Z,94.12
2022-10-24T21:52:39.761Z,93.92
2022-10-24T21:57:41.300Z,94.00
2022-10-24T22:02:42.966Z,94.22
2022-10-24T22:07:47.455Z,94.50
2022-10-24T22:12:51.224Z,94.34
2022-10-24T22:17:52.804Z,93.88
2022-10-24T22:22:54.339Z,93.78
2022-10-24T22:27:55.932Z,93.76
2022-10-24T22:32:59.137Z,93.71
2022-10-24T22:38:00.973Z,94.17
2022-10-24T22:43:02.763Z,94.17
2022-10-24T22:48:10.190Z,94.29
2022-10-24T22:53:13.517Z,93.92
2022-10-24T22:58:15.457Z,93.54
2022-10-24T23:03:33.327Z,92.93
2022-10-24T23:08:39.903Z,92.93
2022-10-24T23:13:42.769Z,93.01
2022-10-24T23:18:44.567Z,93.34
2022-10-24T23:23:46.372Z,93.12
2022-10-24T23:28:59.241Z,93.40
2022-10-24T23:34:01.091Z,93.78
2022-10-24T23:39:03.313Z,93.78
2022-10-24T23:44:05.396Z,93.19
2022-10-24T23:49:34.827Z,92.83
2022-10-24T23:54:36.680Z,92.59
2022-10-24T23:59:38.218Z,92.28
